sensor_id;sensor_type;location;lat;lon;timestamp;P1;durP1;ratioP1;P2;durP2;ratioP2
8058;SDS011;4072;42.668;23.396;2023-03-23T00:00:49;53.30;;;38.83;;
8058;SDS011;4072;42.668;23.396;2023-03-23T00:03:16;56.03;;;39.50;;
8058;SDS011;4072;42.668;23.396;2023-03-23T00:05:43;54.00;;;39.03;;
8058;SDS011;4072;42.668;23.396;2023-03-23T00:08:15;59.10;;;40.03;;
8058;SDS011;4072;42.668;23.396;2023-03-23T00:10:42;62.90;;;40.33;;
8058;SDS011;4072;42.668;23.396;2023-03-23T00:13:09;64.70;;;40.80;;
8058;SDS011;4072;42.668;23.396;2023-03-23T00:15:36;71.93;;;41.97;;
8058;SDS011;4072;42.668;23.396;2023-03-23T00:18:08;85.60;;;40.40;;
8058;SDS011;4072;42.668;23.396;2023-03-23T00:20:46;82.73;;;40.77;;
8058;SDS011;4072;42.668;23.396;2023-03-23T00:23:14;65.90;;;39.97;;
8058;SDS011;4072;42.668;23.396;2023-03-23T00:25:44;89.60;;;40.73;;
8058;SDS011;4072;42.668;23.396;2023-03-23T00:28:11;74.63;;;40.30;;
8058;SDS011;4072;42.668;23.396;2023-03-23T00:30:38;169.37;;;45.03;;
8058;SDS011;4072;42.668;23.396;2023-03-23T00:33:05;120.23;;;39.17;;
8058;SDS011;4072;42.668;23.396;2023-03-23T00:35:33;176.70;;;48.73;;
8058;SDS011;4072;42.668;23.396;2023-03-23T00:38:01;203.93;;;45.97;;
8058;SDS011;4072;42.668;23.396;2023-03-23T00:40:27;125.07;;;42.63;;
8058;SDS011;4072;42.668;23.396;2023-03-23T00:42:54;70.60;;;39.53;;
8058;SDS011;4072;42.668;23.396;2023-03-23T00:45:20;88.13;;;39.97;;
8058;SDS011;4072;42.668;23.396;2023-03-23T00:47:49;108.50;;;41.90;;
8058;SDS011;4072;42.668;23.396;2023-03-23T00:50:16;86.57;;;41.07;;
8058;SDS011;4072;42.668;23.396;2023-03-23T00:52:45;126.03;;;46.47;;
8058;SDS011;4072;42.668;23.396;2023-03-23T00:55:11;108.87;;;41.00;;
8058;SDS011;4072;42.668;23.396;2023-03-23T00:57:38;115.07;;;46.00;;
8058;SDS011;4072;42.668;23.396;2023-03-23T01:00:05;100.00;;;42.07;;
8058;SDS011;4072;42.668;23.396;2023-03-23T01:02:36;57.67;;;32.90;;
8058;SDS011;4072;42.668;23.396;2023-03-23T01:05:06;67.10;;;29.77;;
8058;SDS011;4072;42.668;23.396;2023-03-23T01:07:32;88.77;;;40.40;;
8058;SDS011;4072;42.668;23.396;2023-03-23T01:10:00;194.77;;;45.07;;
8058;SDS011;4072;42.668;23.396;2023-03-23T01:12:28;112.37;;;44.93;;
8058;SDS011;4072;42.668;23.396;2023-03-23T01:14:54;85.60;;;41.87;;
8058;SDS011;4072;42.668;23.396;2023-03-23T01:17:21;67.30;;;39.40;;
8058;SDS011;4072;42.668;23.396;2023-03-23T01:19:47;43.77;;;30.23;;
8058;SDS011;4072;42.668;23.396;2023-03-23T01:22:14;33.40;;;23.60;;
8058;SDS011;4072;42.668;23.396;2023-03-23T01:24:41;30.83;;;21.10;;
8058;SDS011;4072;42.668;23.396;2023-03-23T01:27:09;27.37;;;20.10;;
8058;SDS011;4072;42.668;23.396;2023-03-23T01:29:35;25.47;;;20.50;;
8058;SDS011;4072;42.668;23.396;2023-03-23T01:32:02;26.73;;;21.07;;
8058;SDS011;4072;42.668;23.396;2023-03-23T01:34:29;26.60;;;20.80;;
8058;SDS011;4072;42.668;23.396;2023-03-23T01:36:56;25.83;;;19.87;;
8058;SDS011;4072;42.668;23.396;2023-03-23T01:39:23;29.40;;;20.53;;
8058;SDS011;4072;42.668;23.396;2023-03-23T01:41:49;28.10;;;20.93;;
8058;SDS011;4072;42.668;23.396;2023-03-23T01:47:02;33.70;;;24.57;;
8058;SDS011;4072;42.668;23.396;2023-03-23T01:49:29;32.67;;;22.13;;
8058;SDS011;4072;42.668;23.396;2023-03-23T01:51:59;35.30;;;25.27;;
8058;SDS011;4072;42.668;23.396;2023-03-23T01:54:26;33.40;;;22.53;;
8058;SDS011;4072;42.668;23.396;2023-03-23T01:56:53;35.27;;;24.50;;
8058;SDS011;4072;42.668;23.396;2023-03-23T01:59:21;33.37;;;24.00;;
8058;SDS011;4072;42.668;23.396;2023-03-23T02:01:49;38.10;;;27.73;;
8058;SDS011;4072;42.668;23.396;2023-03-23T02:04:18;30.30;;;23.40;;
8058;SDS011;4072;42.668;23.396;2023-03-23T02:06:46;29.37;;;21.20;;
8058;SDS011;4072;42.668;23.396;2023-03-23T02:09:14;29.13;;;21.97;;
8058;SDS011;4072;42.668;23.396;2023-03-23T02:11:43;36.20;;;24.37;;
8058;SDS011;4072;42.668;23.396;2023-03-23T02:14:10;29.33;;;22.77;;
8058;SDS011;4072;42.668;23.396;2023-03-23T02:16:38;30.03;;;22.17;;
8058;SDS011;4072;42.668;23.396;2023-03-23T02:19:12;34.20;;;23.77;;
8058;SDS011;4072;42.668;23.396;2023-03-23T02:24:58;38.23;;;25.53;;
8058;SDS011;4072;42.668;23.396;2023-03-23T02:27:33;46.07;;;28.47;;
8058;SDS011;4072;42.668;23.396;2023-03-23T02:30:11;47.17;;;31.83;;
8058;SDS011;4072;42.668;23.396;2023-03-23T02:32:55;70.77;;;34.10;;
8058;SDS011;4072;42.668;23.396;2023-03-23T02:35:28;47.77;;;31.60;;
8058;SDS011;4072;42.668;23.396;2023-03-23T02:37:57;66.93;;;34.63;;
8058;SDS011;4072;42.668;23.396;2023-03-23T02:40:25;67.70;;;32.13;;
8058;SDS011;4072;42.668;23.396;2023-03-23T02:42:55;48.00;;;27.87;;
8058;SDS011;4072;42.668;23.396;2023-03-23T02:45:23;63.83;;;28.97;;
8058;SDS011;4072;42.668;23.396;2023-03-23T02:47:52;44.77;;;28.97;;
8058;SDS011;4072;42.668;23.396;2023-03-23T02:50:19;78.57;;;35.67;;
8058;SDS011;4072;42.668;23.396;2023-03-23T02:52:48;127.17;;;35.90;;
8058;SDS011;4072;42.668;23.396;2023-03-23T02:55:16;73.33;;;32.17;;
8058;SDS011;4072;42.668;23.396;2023-03-23T02:57:43;69.17;;;32.20;;
8058;SDS011;4072;42.668;23.396;2023-03-23T03:00:12;53.10;;;30.40;;
8058;SDS011;4072;42.668;23.396;2023-03-23T03:02:39;62.00;;;31.00;;
8058;SDS011;4072;42.668;23.396;2023-03-23T03:05:09;77.10;;;35.10;;
8058;SDS011;4072;42.668;23.396;2023-03-23T03:07:45;52.67;;;28.10;;
8058;SDS011;4072;42.668;23.396;2023-03-23T03:10:16;57.50;;;31.63;;
8058;SDS011;4072;42.668;23.396;2023-03-23T03:12:46;81.93;;;35.03;;
8058;SDS011;4072;42.668;23.396;2023-03-23T03:15:19;56.37;;;31.30;;
8058;SDS011;4072;42.668;23.396;2023-03-23T03:17:49;73.93;;;34.53;;
8058;SDS011;4072;42.668;23.396;2023-03-23T03:20:19;60.83;;;35.70;;
8058;SDS011;4072;42.668;23.396;2023-03-23T03:22:47;55.67;;;33.53;;
8058;SDS011;4072;42.668;23.396;2023-03-23T03:25:14;46.57;;;33.20;;
8058;SDS011;4072;42.668;23.396;2023-03-23T03:27:43;49.23;;;35.27;;
8058;SDS011;4072;42.668;23.396;2023-03-23T03:30:11;46.67;;;32.93;;
8058;SDS011;4072;42.668;23.396;2023-03-23T03:32:41;45.40;;;32.97;;
8058;SDS011;4072;42.668;23.396;2023-03-23T03:35:11;66.57;;;36.13;;
8058;SDS011;4072;42.668;23.396;2023-03-23T03:37:39;99.17;;;37.53;;
8058;SDS011;4072;42.668;23.396;2023-03-23T03:40:07;65.07;;;33.60;;
8058;SDS011;4072;42.668;23.396;2023-03-23T03:42:37;67.73;;;36.23;;
8058;SDS011;4072;42.668;23.396;2023-03-23T03:45:06;55.40;;;33.20;;
8058;SDS011;4072;42.668;23.396;2023-03-23T03:47:33;64.67;;;35.17;;
8058;SDS011;4072;42.668;23.396;2023-03-23T03:50:00;57.57;;;33.53;;
8058;SDS011;4072;42.668;23.396;2023-03-23T03:52:26;64.73;;;35.60;;
8058;SDS011;4072;42.668;23.396;2023-03-23T03:54:54;63.90;;;34.27;;
8058;SDS011;4072;42.668;23.396;2023-03-23T03:57:21;51.90;;;34.57;;
8058;SDS011;4072;42.668;23.396;2023-03-23T03:59:47;52.93;;;35.77;;
8058;SDS011;4072;42.668;23.396;2023-03-23T04:02:15;50.00;;;33.73;;
8058;SDS011;4072;42.668;23.396;2023-03-23T04:04:45;47.07;;;30.93;;
8058;SDS011;4072;42.668;23.396;2023-03-23T04:07:12;52.07;;;34.40;;
8058;SDS011;4072;42.668;23.396;2023-03-23T04:09:39;46.57;;;33.10;;
8058;SDS011;4072;42.668;23.396;2023-03-23T04:12:06;46.07;;;31.73;;
8058;SDS011;4072;42.668;23.396;2023-03-23T04:14:32;50.37;;;31.13;;
8058;SDS011;4072;42.668;23.396;2023-03-23T04:16:59;50.20;;;33.87;;
8058;SDS011;4072;42.668;23.396;2023-03-23T04:19:27;50.93;;;34.43;;
8058;SDS011;4072;42.668;23.396;2023-03-23T04:21:58;65.53;;;35.13;;
8058;SDS011;4072;42.668;23.396;2023-03-23T04:24:24;41.47;;;29.50;;
8058;SDS011;4072;42.668;23.396;2023-03-23T04:26:53;39.87;;;27.80;;
8058;SDS011;4072;42.668;23.396;2023-03-23T04:29:20;35.80;;;25.80;;
8058;SDS011;4072;42.668;23.396;2023-03-23T04:31:47;26.90;;;20.23;;
8058;SDS011;4072;42.668;23.396;2023-03-23T04:34:15;30.97;;;22.17;;
8058;SDS011;4072;42.668;23.396;2023-03-23T04:36:44;29.37;;;22.83;;
8058;SDS011;4072;42.668;23.396;2023-03-23T04:39:11;21.47;;;16.80;;
8058;SDS011;4072;42.668;23.396;2023-03-23T04:41:38;22.23;;;17.73;;
8058;SDS011;4072;42.668;23.396;2023-03-23T04:44:06;22.70;;;18.37;;
8058;SDS011;4072;42.668;23.396;2023-03-23T04:46:32;28.43;;;22.47;;
8058;SDS011;4072;42.668;23.396;2023-03-23T04:48:59;33.03;;;24.77;;
8058;SDS011;4072;42.668;23.396;2023-03-23T04:51:28;28.37;;;22.63;;
8058;SDS011;4072;42.668;23.396;2023-03-23T04:53:57;29.67;;;21.07;;
8058;SDS011;4072;42.668;23.396;2023-03-23T04:56:24;27.40;;;19.87;;
8058;SDS011;4072;42.668;23.396;2023-03-23T04:58:50;23.40;;;18.37;;
8058;SDS011;4072;42.668;23.396;2023-03-23T05:01:17;32.63;;;23.70;;
8058;SDS011;4072;42.668;23.396;2023-03-23T05:03:44;30.33;;;21.47;;
8058;SDS011;4072;42.668;23.396;2023-03-23T05:06:10;27.53;;;19.63;;
8058;SDS011;4072;42.668;23.396;2023-03-23T05:08:37;27.87;;;21.33;;
8058;SDS011;4072;42.668;23.396;2023-03-23T05:11:06;32.77;;;23.83;;
8058;SDS011;4072;42.668;23.396;2023-03-23T05:13:33;33.73;;;24.97;;
8058;SDS011;4072;42.668;23.396;2023-03-23T05:16:02;35.73;;;25.77;;
8058;SDS011;4072;42.668;23.396;2023-03-23T05:18:29;36.47;;;24.60;;
8058;SDS011;4072;42.668;23.396;2023-03-23T05:20:59;33.27;;;23.40;;
8058;SDS011;4072;42.668;23.396;2023-03-23T05:23:25;30.77;;;24.67;;
8058;SDS011;4072;42.668;23.396;2023-03-23T05:25:52;33.10;;;25.27;;
8058;SDS011;4072;42.668;23.396;2023-03-23T05:28:21;33.73;;;23.07;;
8058;SDS011;4072;42.668;23.396;2023-03-23T05:30:48;30.23;;;23.17;;
8058;SDS011;4072;42.668;23.396;2023-03-23T05:33:15;32.53;;;25.53;;
8058;SDS011;4072;42.668;23.396;2023-03-23T05:35:41;29.33;;;22.20;;
8058;SDS011;4072;42.668;23.396;2023-03-23T05:38:08;32.80;;;24.17;;
8058;SDS011;4072;42.668;23.396;2023-03-23T05:40:35;31.30;;;24.73;;
8058;SDS011;4072;42.668;23.396;2023-03-23T05:43:02;34.27;;;26.57;;
8058;SDS011;4072;42.668;23.396;2023-03-23T05:45:30;30.53;;;23.63;;
8058;SDS011;4072;42.668;23.396;2023-03-23T05:47:57;36.73;;;26.23;;
8058;SDS011;4072;42.668;23.396;2023-03-23T05:50:23;35.87;;;29.10;;
8058;SDS011;4072;42.668;23.396;2023-03-23T05:52:50;37.10;;;28.03;;
8058;SDS011;4072;42.668;23.396;2023-03-23T05:55:17;31.93;;;25.37;;
8058;SDS011;4072;42.668;23.396;2023-03-23T05:57:43;34.20;;;25.80;;
8058;SDS011;4072;42.668;23.396;2023-03-23T06:00:10;37.07;;;28.63;;
8058;SDS011;4072;42.668;23.396;2023-03-23T06:02:47;34.87;;;26.33;;
8058;SDS011;4072;42.668;23.396;2023-03-23T06:05:14;32.60;;;25.80;;
8058;SDS011;4072;42.668;23.396;2023-03-23T06:07:41;38.23;;;29.13;;
8058;SDS011;4072;42.668;23.396;2023-03-23T06:10:08;36.30;;;28.67;;
8058;SDS011;4072;42.668;23.396;2023-03-23T06:12:35;34.43;;;26.73;;
8058;SDS011;4072;42.668;23.396;2023-03-23T06:15:02;34.53;;;26.23;;
8058;SDS011;4072;42.668;23.396;2023-03-23T06:17:29;34.17;;;26.10;;
8058;SDS011;4072;42.668;23.396;2023-03-23T06:19:57;34.43;;;24.87;;
8058;SDS011;4072;42.668;23.396;2023-03-23T06:22:23;29.97;;;22.67;;
8058;SDS011;4072;42.668;23.396;2023-03-23T06:24:50;33.77;;;23.73;;
8058;SDS011;4072;42.668;23.396;2023-03-23T06:27:17;28.13;;;21.17;;
8058;SDS011;4072;42.668;23.396;2023-03-23T06:29:43;27.90;;;21.13;;
8058;SDS011;4072;42.668;23.396;2023-03-23T06:32:10;28.03;;;21.07;;
8058;SDS011;4072;42.668;23.396;2023-03-23T06:34:37;31.07;;;21.33;;
8058;SDS011;4072;42.668;23.396;2023-03-23T06:37:07;30.10;;;23.43;;
8058;SDS011;4072;42.668;23.396;2023-03-23T06:39:34;29.60;;;23.60;;
8058;SDS011;4072;42.668;23.396;2023-03-23T06:42:01;28.50;;;22.23;;
8058;SDS011;4072;42.668;23.396;2023-03-23T06:44:27;24.33;;;21.07;;
8058;SDS011;4072;42.668;23.396;2023-03-23T06:46:54;27.83;;;22.27;;
8058;SDS011;4072;42.668;23.396;2023-03-23T06:49:21;27.13;;;21.80;;
8058;SDS011;4072;42.668;23.396;2023-03-23T06:51:48;31.17;;;23.27;;
8058;SDS011;4072;42.668;23.396;2023-03-23T06:54:16;32.13;;;24.70;;
8058;SDS011;4072;42.668;23.396;2023-03-23T06:56:42;24.63;;;20.63;;
8058;SDS011;4072;42.668;23.396;2023-03-23T06:59:09;29.53;;;23.00;;
8058;SDS011;4072;42.668;23.396;2023-03-23T07:01:36;32.50;;;25.10;;
8058;SDS011;4072;42.668;23.396;2023-03-23T07:04:03;28.20;;;22.13;;
8058;SDS011;4072;42.668;23.396;2023-03-23T07:06:30;30.50;;;23.30;;
8058;SDS011;4072;42.668;23.396;2023-03-23T07:08:57;33.90;;;23.10;;
8058;SDS011;4072;42.668;23.396;2023-03-23T07:11:24;28.03;;;23.07;;
8058;SDS011;4072;42.668;23.396;2023-03-23T07:13:51;30.37;;;25.20;;
8058;SDS011;4072;42.668;23.396;2023-03-23T07:16:18;31.40;;;24.63;;
8058;SDS011;4072;42.668;23.396;2023-03-23T07:18:44;28.83;;;23.80;;
8058;SDS011;4072;42.668;23.396;2023-03-23T07:21:11;31.33;;;24.27;;
8058;SDS011;4072;42.668;23.396;2023-03-23T07:23:37;29.07;;;22.93;;
8058;SDS011;4072;42.668;23.396;2023-03-23T07:26:04;29.77;;;23.03;;
8058;SDS011;4072;42.668;23.396;2023-03-23T07:28:33;27.47;;;22.97;;
8058;SDS011;4072;42.668;23.396;2023-03-23T07:31:00;30.00;;;24.10;;
8058;SDS011;4072;42.668;23.396;2023-03-23T07:33:26;29.63;;;23.87;;
8058;SDS011;4072;42.668;23.396;2023-03-23T07:35:53;31.87;;;24.17;;
8058;SDS011;4072;42.668;23.396;2023-03-23T07:38:20;27.30;;;22.40;;
8058;SDS011;4072;42.668;23.396;2023-03-23T07:40:46;26.67;;;22.83;;
8058;SDS011;4072;42.668;23.396;2023-03-23T07:43:13;26.63;;;22.43;;
8058;SDS011;4072;42.668;23.396;2023-03-23T07:45:42;29.50;;;22.70;;
8058;SDS011;4072;42.668;23.396;2023-03-23T07:48:08;26.53;;;22.30;;
8058;SDS011;4072;42.668;23.396;2023-03-23T07:50:35;27.10;;;22.70;;
8058;SDS011;4072;42.668;23.396;2023-03-23T07:53:02;26.47;;;22.73;;
8058;SDS011;4072;42.668;23.396;2023-03-23T07:55:29;32.13;;;24.53;;
8058;SDS011;4072;42.668;23.396;2023-03-23T07:57:55;31.97;;;24.20;;
8058;SDS011;4072;42.668;23.396;2023-03-23T08:00:22;31.87;;;24.37;;
8058;SDS011;4072;42.668;23.396;2023-03-23T08:02:51;27.60;;;23.17;;
8058;SDS011;4072;42.668;23.396;2023-03-23T08:05:18;30.07;;;22.47;;
8058;SDS011;4072;42.668;23.396;2023-03-23T08:07:46;30.17;;;22.97;;
8058;SDS011;4072;42.668;23.396;2023-03-23T08:10:12;28.27;;;23.90;;
8058;SDS011;4072;42.668;23.396;2023-03-23T08:12:40;29.77;;;24.10;;
8058;SDS011;4072;42.668;23.396;2023-03-23T08:15:07;30.53;;;23.40;;
8058;SDS011;4072;42.668;23.396;2023-03-23T08:17:34;25.90;;;20.73;;
8058;SDS011;4072;42.668;23.396;2023-03-23T08:20:03;29.03;;;22.23;;
8058;SDS011;4072;42.668;23.396;2023-03-23T08:22:36;25.37;;;19.53;;
8058;SDS011;4072;42.668;23.396;2023-03-23T08:25:03;25.83;;;21.50;;
8058;SDS011;4072;42.668;23.396;2023-03-23T08:27:31;23.77;;;18.87;;
8058;SDS011;4072;42.668;23.396;2023-03-23T08:29:58;22.20;;;19.33;;
8058;SDS011;4072;42.668;23.396;2023-03-23T08:32:26;23.50;;;19.23;;
8058;SDS011;4072;42.668;23.396;2023-03-23T08:34:53;24.47;;;19.13;;
8058;SDS011;4072;42.668;23.396;2023-03-23T08:37:21;28.73;;;21.00;;
8058;SDS011;4072;42.668;23.396;2023-03-23T08:39:50;23.60;;;18.93;;
8058;SDS011;4072;42.668;23.396;2023-03-23T08:42:17;22.80;;;19.27;;
8058;SDS011;4072;42.668;23.396;2023-03-23T08:44:44;23.57;;;18.67;;
8058;SDS011;4072;42.668;23.396;2023-03-23T08:47:10;15.57;;;13.90;;
8058;SDS011;4072;42.668;23.396;2023-03-23T08:49:37;20.67;;;15.50;;
8058;SDS011;4072;42.668;23.396;2023-03-23T08:52:04;13.47;;;11.47;;
8058;SDS011;4072;42.668;23.396;2023-03-23T08:54:32;11.87;;;10.67;;
8058;SDS011;4072;42.668;23.396;2023-03-23T08:56:59;15.47;;;10.53;;
8058;SDS011;4072;42.668;23.396;2023-03-23T08:59:25;9.90;;;8.90;;
8058;SDS011;4072;42.668;23.396;2023-03-23T09:01:52;13.80;;;11.90;;
8058;SDS011;4072;42.668;23.396;2023-03-23T09:04:19;20.10;;;13.53;;
8058;SDS011;4072;42.668;23.396;2023-03-23T09:06:46;17.63;;;14.30;;
8058;SDS011;4072;42.668;23.396;2023-03-23T09:09:13;16.53;;;12.47;;
8058;SDS011;4072;42.668;23.396;2023-03-23T09:11:42;14.73;;;13.23;;
8058;SDS011;4072;42.668;23.396;2023-03-23T09:14:08;15.17;;;12.13;;
8058;SDS011;4072;42.668;23.396;2023-03-23T09:16:35;12.60;;;11.03;;
8058;SDS011;4072;42.668;23.396;2023-03-23T09:19:01;7.60;;;6.80;;
8058;SDS011;4072;42.668;23.396;2023-03-23T09:21:28;9.27;;;7.37;;
8058;SDS011;4072;42.668;23.396;2023-03-23T09:23:55;8.73;;;7.80;;
8058;SDS011;4072;42.668;23.396;2023-03-23T09:26:23;10.37;;;9.07;;
8058;SDS011;4072;42.668;23.396;2023-03-23T09:28:51;7.40;;;6.00;;
8058;SDS011;4072;42.668;23.396;2023-03-23T09:31:18;9.33;;;6.57;;
8058;SDS011;4072;42.668;23.396;2023-03-23T09:33:45;7.17;;;6.27;;
8058;SDS011;4072;42.668;23.396;2023-03-23T09:36:12;6.90;;;6.20;;
8058;SDS011;4072;42.668;23.396;2023-03-23T09:38:42;7.63;;;6.83;;
8058;SDS011;4072;42.668;23.396;2023-03-23T09:41:12;7.47;;;6.70;;
8058;SDS011;4072;42.668;23.396;2023-03-23T09:43:48;8.60;;;7.80;;
8058;SDS011;4072;42.668;23.396;2023-03-23T09:46:33;13.93;;;9.20;;
8058;SDS011;4072;42.668;23.396;2023-03-23T09:49:02;9.17;;;8.17;;
8058;SDS011;4072;42.668;23.396;2023-03-23T09:51:34;10.10;;;8.07;;
8058;SDS011;4072;42.668;23.396;2023-03-23T09:54:04;8.20;;;7.40;;
8058;SDS011;4072;42.668;23.396;2023-03-23T09:56:33;6.83;;;5.67;;
8058;SDS011;4072;42.668;23.396;2023-03-23T09:59:02;11.10;;;7.67;;
8058;SDS011;4072;42.668;23.396;2023-03-23T10:01:32;7.97;;;6.37;;
8058;SDS011;4072;42.668;23.396;2023-03-23T10:04:01;7.93;;;7.13;;
8058;SDS011;4072;42.668;23.396;2023-03-23T10:06:29;6.67;;;6.07;;
8058;SDS011;4072;42.668;23.396;2023-03-23T10:08:56;7.53;;;6.73;;
8058;SDS011;4072;42.668;23.396;2023-03-23T10:11:27;8.13;;;7.33;;
8058;SDS011;4072;42.668;23.396;2023-03-23T10:14:08;8.57;;;7.07;;
8058;SDS011;4072;42.668;23.396;2023-03-23T10:16:38;7.40;;;6.67;;
8058;SDS011;4072;42.668;23.396;2023-03-23T10:19:09;7.20;;;6.50;;
8058;SDS011;4072;42.668;23.396;2023-03-23T10:21:37;7.37;;;6.20;;
8058;SDS011;4072;42.668;23.396;2023-03-23T10:24:07;7.90;;;7.07;;
8058;SDS011;4072;42.668;23.396;2023-03-23T10:26:37;7.77;;;7.00;;
8058;SDS011;4072;42.668;23.396;2023-03-23T10:29:11;6.93;;;6.33;;
8058;SDS011;4072;42.668;23.396;2023-03-23T10:31:41;8.87;;;5.87;;
8058;SDS011;4072;42.668;23.396;2023-03-23T10:34:10;7.43;;;5.43;;
8058;SDS011;4072;42.668;23.396;2023-03-23T10:36:38;6.30;;;5.67;;
8058;SDS011;4072;42.668;23.396;2023-03-23T10:39:08;6.20;;;5.60;;
8058;SDS011;4072;42.668;23.396;2023-03-23T10:41:36;7.13;;;6.40;;
8058;SDS011;4072;42.668;23.396;2023-03-23T10:44:07;7.00;;;5.73;;
8058;SDS011;4072;42.668;23.396;2023-03-23T10:46:36;5.37;;;4.87;;
8058;SDS011;4072;42.668;23.396;2023-03-23T10:49:07;7.53;;;6.00;;
8058;SDS011;4072;42.668;23.396;2023-03-23T10:51:36;7.50;;;5.63;;
8058;SDS011;4072;42.668;23.396;2023-03-23T10:54:03;7.70;;;5.80;;
8058;SDS011;4072;42.668;23.396;2023-03-23T10:56:34;7.77;;;6.20;;
8058;SDS011;4072;42.668;23.396;2023-03-23T10:59:10;7.03;;;5.73;;
8058;SDS011;4072;42.668;23.396;2023-03-23T11:01:38;6.57;;;5.93;;
8058;SDS011;4072;42.668;23.396;2023-03-23T11:04:11;8.10;;;6.50;;
8058;SDS011;4072;42.668;23.396;2023-03-23T11:06:38;6.57;;;5.93;;
8058;SDS011;4072;42.668;23.396;2023-03-23T11:09:10;12.67;;;9.43;;
8058;SDS011;4072;42.668;23.396;2023-03-23T11:11:39;7.47;;;6.70;;
8058;SDS011;4072;42.668;23.396;2023-03-23T11:14:13;9.17;;;7.40;;
8058;SDS011;4072;42.668;23.396;2023-03-23T11:16:43;6.70;;;6.03;;
8058;SDS011;4072;42.668;23.396;2023-03-23T11:19:15;7.97;;;6.40;;
8058;SDS011;4072;42.668;23.396;2023-03-23T11:21:45;6.90;;;5.53;;
8058;SDS011;4072;42.668;23.396;2023-03-23T11:24:12;6.53;;;5.83;;
8058;SDS011;4072;42.668;23.396;2023-03-23T11:26:39;6.80;;;6.10;;
8058;SDS011;4072;42.668;23.396;2023-03-23T11:29:09;7.23;;;6.53;;
8058;SDS011;4072;42.668;23.396;2023-03-23T11:31:38;5.97;;;5.43;;
8058;SDS011;4072;42.668;23.396;2023-03-23T11:34:09;6.90;;;6.27;;
8058;SDS011;4072;42.668;23.396;2023-03-23T11:36:39;7.00;;;6.30;;
8058;SDS011;4072;42.668;23.396;2023-03-23T11:39:19;6.40;;;5.70;;
8058;SDS011;4072;42.668;23.396;2023-03-23T11:41:46;6.63;;;6.03;;
8058;SDS011;4072;42.668;23.396;2023-03-23T11:44:13;6.77;;;6.07;;
8058;SDS011;4072;42.668;23.396;2023-03-23T11:46:43;6.93;;;6.13;;
8058;SDS011;4072;42.668;23.396;2023-03-23T11:49:14;6.83;;;6.13;;
8058;SDS011;4072;42.668;23.396;2023-03-23T11:51:44;7.43;;;6.13;;
8058;SDS011;4072;42.668;23.396;2023-03-23T11:54:15;7.57;;;6.77;;
8058;SDS011;4072;42.668;23.396;2023-03-23T11:56:43;6.57;;;5.97;;
8058;SDS011;4072;42.668;23.396;2023-03-23T11:59:10;7.53;;;6.13;;
8058;SDS011;4072;42.668;23.396;2023-03-23T12:04:26;7.30;;;6.60;;
8058;SDS011;4072;42.668;23.396;2023-03-23T12:06:58;7.73;;;6.93;;
8058;SDS011;4072;42.668;23.396;2023-03-23T12:09:33;8.37;;;6.27;;
8058;SDS011;4072;42.668;23.396;2023-03-23T12:12:05;7.97;;;7.17;;
8058;SDS011;4072;42.668;23.396;2023-03-23T12:14:35;6.47;;;5.73;;
8058;SDS011;4072;42.668;23.396;2023-03-23T12:17:07;5.57;;;5.00;;
8058;SDS011;4072;42.668;23.396;2023-03-23T12:19:37;5.50;;;5.00;;
8058;SDS011;4072;42.668;23.396;2023-03-23T12:22:11;5.73;;;5.23;;
8058;SDS011;4072;42.668;23.396;2023-03-23T12:24:46;6.43;;;5.90;;
8058;SDS011;4072;42.668;23.396;2023-03-23T12:27:19;6.37;;;5.70;;
8058;SDS011;4072;42.668;23.396;2023-03-23T12:29:56;7.13;;;6.43;;
8058;SDS011;4072;42.668;23.396;2023-03-23T12:32:30;6.47;;;5.63;;
8058;SDS011;4072;42.668;23.396;2023-03-23T12:35:03;6.87;;;5.93;;
8058;SDS011;4072;42.668;23.396;2023-03-23T12:37:38;6.00;;;4.77;;
8058;SDS011;4072;42.668;23.396;2023-03-23T12:40:11;5.77;;;5.17;;
8058;SDS011;4072;42.668;23.396;2023-03-23T12:42:44;6.93;;;5.67;;
8058;SDS011;4072;42.668;23.396;2023-03-23T12:45:17;6.90;;;4.93;;
8058;SDS011;4072;42.668;23.396;2023-03-23T12:47:47;6.83;;;5.83;;
8058;SDS011;4072;42.668;23.396;2023-03-23T12:50:16;6.23;;;5.63;;
8058;SDS011;4072;42.668;23.396;2023-03-23T12:52:48;8.33;;;6.00;;
8058;SDS011;4072;42.668;23.396;2023-03-23T12:55:19;6.03;;;5.43;;
8058;SDS011;4072;42.668;23.396;2023-03-23T12:57:49;6.43;;;5.83;;
8058;SDS011;4072;42.668;23.396;2023-03-23T13:00:19;6.77;;;6.17;;
8058;SDS011;4072;42.668;23.396;2023-03-23T13:02:49;6.20;;;5.60;;
8058;SDS011;4072;42.668;23.396;2023-03-23T13:05:26;7.70;;;5.70;;
8058;SDS011;4072;42.668;23.396;2023-03-23T13:07:57;6.17;;;5.57;;
8058;SDS011;4072;42.668;23.396;2023-03-23T13:10:26;5.57;;;4.60;;
8058;SDS011;4072;42.668;23.396;2023-03-23T13:12:54;6.80;;;6.13;;
8058;SDS011;4072;42.668;23.396;2023-03-23T13:15:24;6.77;;;6.17;;
8058;SDS011;4072;42.668;23.396;2023-03-23T13:17:54;7.33;;;6.00;;
8058;SDS011;4072;42.668;23.396;2023-03-23T13:20:44;6.00;;;5.47;;
8058;SDS011;4072;42.668;23.396;2023-03-23T13:23:15;6.50;;;5.73;;
8058;SDS011;4072;42.668;23.396;2023-03-23T13:25:53;6.57;;;5.90;;
8058;SDS011;4072;42.668;23.396;2023-03-23T13:28:22;6.20;;;5.60;;
8058;SDS011;4072;42.668;23.396;2023-03-23T13:30:55;6.20;;;5.53;;
8058;SDS011;4072;42.668;23.396;2023-03-23T13:33:22;6.57;;;5.07;;
8058;SDS011;4072;42.668;23.396;2023-03-23T13:35:49;5.93;;;4.90;;
8058;SDS011;4072;42.668;23.396;2023-03-23T13:38:19;5.00;;;4.50;;
8058;SDS011;4072;42.668;23.396;2023-03-23T13:40:47;6.73;;;5.30;;
8058;SDS011;4072;42.668;23.396;2023-03-23T13:43:24;7.47;;;5.30;;
8058;SDS011;4072;42.668;23.396;2023-03-23T13:45:51;5.93;;;5.30;;
8058;SDS011;4072;42.668;23.396;2023-03-23T13:48:21;5.30;;;4.80;;
8058;SDS011;4072;42.668;23.396;2023-03-23T13:50:51;6.63;;;5.17;;
8058;SDS011;4072;42.668;23.396;2023-03-23T13:53:24;6.27;;;5.67;;
8058;SDS011;4072;42.668;23.396;2023-03-23T13:56:04;6.77;;;6.07;;
8058;SDS011;4072;42.668;23.396;2023-03-23T13:58:31;6.27;;;5.67;;
8058;SDS011;4072;42.668;23.396;2023-03-23T14:01:02;6.00;;;5.50;;
8058;SDS011;4072;42.668;23.396;2023-03-23T14:03:37;6.27;;;5.63;;
8058;SDS011;4072;42.668;23.396;2023-03-23T14:06:05;8.30;;;6.13;;
8058;SDS011;4072;42.668;23.396;2023-03-23T14:08:38;8.50;;;6.10;;
8058;SDS011;4072;42.668;23.396;2023-03-23T14:11:16;6.17;;;5.53;;
8058;SDS011;4072;42.668;23.396;2023-03-23T14:13:44;5.30;;;4.80;;
8058;SDS011;4072;42.668;23.396;2023-03-23T14:16:16;5.27;;;4.77;;
8058;SDS011;4072;42.668;23.396;2023-03-23T14:18:48;6.10;;;5.50;;
8058;SDS011;4072;42.668;23.396;2023-03-23T14:21:21;6.10;;;5.13;;
8058;SDS011;4072;42.668;23.396;2023-03-23T14:23:49;7.17;;;5.77;;
8058;SDS011;4072;42.668;23.396;2023-03-23T14:26:17;6.53;;;5.93;;
8058;SDS011;4072;42.668;23.396;2023-03-23T14:28:44;11.23;;;5.80;;
8058;SDS011;4072;42.668;23.396;2023-03-23T14:31:14;7.53;;;5.93;;
8058;SDS011;4072;42.668;23.396;2023-03-23T14:33:42;6.00;;;5.50;;
8058;SDS011;4072;42.668;23.396;2023-03-23T14:36:08;6.00;;;5.40;;
8058;SDS011;4072;42.668;23.396;2023-03-23T14:38:35;5.57;;;5.07;;
8058;SDS011;4072;42.668;23.396;2023-03-23T14:41:05;6.43;;;5.67;;
8058;SDS011;4072;42.668;23.396;2023-03-23T14:43:33;5.93;;;5.33;;
8058;SDS011;4072;42.668;23.396;2023-03-23T14:46:01;6.43;;;5.43;;
8058;SDS011;4072;42.668;23.396;2023-03-23T14:48:28;6.43;;;5.83;;
8058;SDS011;4072;42.668;23.396;2023-03-23T14:50:56;7.53;;;5.70;;
8058;SDS011;4072;42.668;23.396;2023-03-23T14:53:23;6.00;;;5.50;;
8058;SDS011;4072;42.668;23.396;2023-03-23T14:55:51;6.20;;;5.60;;
8058;SDS011;4072;42.668;23.396;2023-03-23T14:58:19;6.73;;;5.93;;
8058;SDS011;4072;42.668;23.396;2023-03-23T15:00:47;7.37;;;5.83;;